Terminal Aerodrome Forecast
Issued by NWS

Home | Current Version | Previous Version | Text Only | Print | Product List | Glossary On
Versions: 1 2 3 4 5 6 7 8 9 10 11 12 13 14
757
FTUS46 KSEW 132338
TAFPAE
TAF
KPAE 132338Z 1400/1424 18016G26KT P6SM -RA SCT012 BKN020 OVC035
     FM140200 18015G24KT P6SM VCSH SCT012 OVC018
     FM140900 17009KT 6SM -RA BR SCT008 OVC012
     FM141400 18011G18KT P6SM VCSH BKN012 OVC030=

USA.gov is the U.S. government's official web portal to all federal, state and local government web resources and services.